sensor_id;sensor_type;location;lat;lon;timestamp;temperature;humidity
20288;DHT22;10303;51.960;8.372;2023-05-07T00:01:15;18.70;99.90
20288;DHT22;10303;51.960;8.372;2023-05-07T00:03:41;18.70;99.90
20288;DHT22;10303;51.960;8.372;2023-05-07T00:06:07;18.60;99.90
20288;DHT22;10303;51.960;8.372;2023-05-07T00:08:33;18.60;99.90
20288;DHT22;10303;51.960;8.372;2023-05-07T00:10:59;18.60;99.90
20288;DHT22;10303;51.960;8.372;2023-05-07T00:13:25;18.50;99.90
20288;DHT22;10303;51.960;8.372;2023-05-07T00:15:51;18.50;99.90
20288;DHT22;10303;51.960;8.372;2023-05-07T00:18:16;18.50;99.90
20288;DHT22;10303;51.960;8.372;2023-05-07T00:20:46;18.50;99.90
20288;DHT22;10303;51.960;8.372;2023-05-07T00:23:12;18.50;99.90
20288;DHT22;10303;51.960;8.372;2023-05-07T00:25:38;18.50;99.90
20288;DHT22;10303;51.960;8.372;2023-05-07T00:28:04;18.40;99.90
20288;DHT22;10303;51.960;8.372;2023-05-07T00:30:30;18.40;99.90
20288;DHT22;10303;51.960;8.372;2023-05-07T00:32:56;18.40;99.90
20288;DHT22;10303;51.960;8.372;2023-05-07T00:35:22;18.40;99.90
20288;DHT22;10303;51.960;8.372;2023-05-07T00:37:48;18.30;99.90
20288;DHT22;10303;51.960;8.372;2023-05-07T00:40:14;18.40;99.90
20288;DHT22;10303;51.960;8.372;2023-05-07T00:42:40;18.30;99.90
20288;DHT22;10303;51.960;8.372;2023-05-07T00:45:06;18.30;99.90
20288;DHT22;10303;51.960;8.372;2023-05-07T00:47:33;18.30;99.90
20288;DHT22;10303;51.960;8.372;2023-05-07T00:49:59;18.20;99.90
20288;DHT22;10303;51.960;8.372;2023-05-07T00:52:26;18.20;99.90
20288;DHT22;10303;51.960;8.372;2023-05-07T00:54:53;18.20;99.90
20288;DHT22;10303;51.960;8.372;2023-05-07T00:57:21;18.20;99.90
20288;DHT22;10303;51.960;8.372;2023-05-07T00:59:48;18.10;99.90
20288;DHT22;10303;51.960;8.372;2023-05-07T01:02:15;18.10;99.90
20288;DHT22;10303;51.960;8.372;2023-05-07T01:04:41;18.10;99.90
20288;DHT22;10303;51.960;8.372;2023-05-07T01:07:07;18.10;99.90
20288;DHT22;10303;51.960;8.372;2023-05-07T01:09:34;18.10;99.90
20288;DHT22;10303;51.960;8.372;2023-05-07T01:12:01;18.00;99.90
20288;DHT22;10303;51.960;8.372;2023-05-07T01:14:29;18.00;99.90
20288;DHT22;10303;51.960;8.372;2023-05-07T01:16:56;18.00;99.90
20288;DHT22;10303;51.960;8.372;2023-05-07T01:19:24;18.00;99.90
20288;DHT22;10303;51.960;8.372;2023-05-07T01:21:51;18.00;99.90
20288;DHT22;10303;51.960;8.372;2023-05-07T01:24:20;18.00;99.90
20288;DHT22;10303;51.960;8.372;2023-05-07T01:26:46;18.00;99.90
20288;DHT22;10303;51.960;8.372;2023-05-07T01:29:15;17.90;99.90
20288;DHT22;10303;51.960;8.372;2023-05-07T01:31:41;17.90;99.90
20288;DHT22;10303;51.960;8.372;2023-05-07T01:34:09;17.90;99.90
20288;DHT22;10303;51.960;8.372;2023-05-07T01:36:39;17.90;99.90
20288;DHT22;10303;51.960;8.372;2023-05-07T01:39:08;17.80;99.90
20288;DHT22;10303;51.960;8.372;2023-05-07T01:41:36;17.80;99.90
20288;DHT22;10303;51.960;8.372;2023-05-07T01:44:03;17.80;99.90
20288;DHT22;10303;51.960;8.372;2023-05-07T01:46:31;17.80;99.90
20288;DHT22;10303;51.960;8.372;2023-05-07T01:48:58;17.80;99.90
20288;DHT22;10303;51.960;8.372;2023-05-07T01:51:25;17.80;99.90
20288;DHT22;10303;51.960;8.372;2023-05-07T01:53:52;17.70;99.90
20288;DHT22;10303;51.960;8.372;2023-05-07T01:56:19;17.70;99.90
20288;DHT22;10303;51.960;8.372;2023-05-07T01:58:47;17.60;99.90
20288;DHT22;10303;51.960;8.372;2023-05-07T02:01:14;17.70;99.90
20288;DHT22;10303;51.960;8.372;2023-05-07T02:03:40;17.60;99.90
20288;DHT22;10303;51.960;8.372;2023-05-07T02:06:13;17.60;99.90
20288;DHT22;10303;51.960;8.372;2023-05-07T02:08:39;17.60;99.90
20288;DHT22;10303;51.960;8.372;2023-05-07T02:11:06;17.60;99.90
20288;DHT22;10303;51.960;8.372;2023-05-07T02:13:33;17.50;99.90
20288;DHT22;10303;51.960;8.372;2023-05-07T02:16:03;17.50;99.90
20288;DHT22;10303;51.960;8.372;2023-05-07T02:18:29;17.50;99.90
20288;DHT22;10303;51.960;8.372;2023-05-07T02:20:55;17.50;99.90
20288;DHT22;10303;51.960;8.372;2023-05-07T02:23:21;17.50;99.90
20288;DHT22;10303;51.960;8.372;2023-05-07T02:25:48;17.40;99.90
20288;DHT22;10303;51.960;8.372;2023-05-07T02:28:14;17.40;99.90
20288;DHT22;10303;51.960;8.372;2023-05-07T02:30:53;17.40;99.90
20288;DHT22;10303;51.960;8.372;2023-05-07T02:33:21;17.40;99.90
20288;DHT22;10303;51.960;8.372;2023-05-07T02:35:47;17.30;99.90
20288;DHT22;10303;51.960;8.372;2023-05-07T02:38:15;17.30;99.90
20288;DHT22;10303;51.960;8.372;2023-05-07T02:40:41;17.30;99.90
20288;DHT22;10303;51.960;8.372;2023-05-07T02:43:07;17.30;99.90
20288;DHT22;10303;51.960;8.372;2023-05-07T02:45:33;17.20;99.90
20288;DHT22;10303;51.960;8.372;2023-05-07T02:48:01;17.20;99.90
20288;DHT22;10303;51.960;8.372;2023-05-07T02:50:27;17.20;99.90
20288;DHT22;10303;51.960;8.372;2023-05-07T02:52:55;17.20;99.90
20288;DHT22;10303;51.960;8.372;2023-05-07T02:55:21;17.10;99.90
20288;DHT22;10303;51.960;8.372;2023-05-07T02:57:47;17.10;99.90
20288;DHT22;10303;51.960;8.372;2023-05-07T03:00:15;17.10;99.90
20288;DHT22;10303;51.960;8.372;2023-05-07T03:03:00;17.10;99.90
20288;DHT22;10303;51.960;8.372;2023-05-07T03:05:26;17.10;99.90
20288;DHT22;10303;51.960;8.372;2023-05-07T03:07:52;17.10;99.90
20288;DHT22;10303;51.960;8.372;2023-05-07T03:10:18;17.10;99.90
20288;DHT22;10303;51.960;8.372;2023-05-07T03:12:44;17.10;99.90
20288;DHT22;10303;51.960;8.372;2023-05-07T03:15:15;17.00;99.90
20288;DHT22;10303;51.960;8.372;2023-05-07T03:17:42;17.00;99.90
20288;DHT22;10303;51.960;8.372;2023-05-07T03:20:08;17.00;99.90
20288;DHT22;10303;51.960;8.372;2023-05-07T03:22:35;17.00;99.90
20288;DHT22;10303;51.960;8.372;2023-05-07T03:25:01;17.00;99.90
20288;DHT22;10303;51.960;8.372;2023-05-07T03:27:28;17.00;99.90
20288;DHT22;10303;51.960;8.372;2023-05-07T03:29:54;17.00;99.90
20288;DHT22;10303;51.960;8.372;2023-05-07T03:32:20;16.90;99.90
20288;DHT22;10303;51.960;8.372;2023-05-07T03:34:47;16.90;99.90
20288;DHT22;10303;51.960;8.372;2023-05-07T03:37:14;16.90;99.90
20288;DHT22;10303;51.960;8.372;2023-05-07T03:39:42;16.90;99.90
20288;DHT22;10303;51.960;8.372;2023-05-07T03:42:09;16.90;99.90
20288;DHT22;10303;51.960;8.372;2023-05-07T03:44:36;16.90;99.90
20288;DHT22;10303;51.960;8.372;2023-05-07T03:47:03;16.90;99.90
20288;DHT22;10303;51.960;8.372;2023-05-07T03:49:31;16.80;99.90
20288;DHT22;10303;51.960;8.372;2023-05-07T03:51:58;16.80;99.90
20288;DHT22;10303;51.960;8.372;2023-05-07T03:54:24;16.80;99.90
20288;DHT22;10303;51.960;8.372;2023-05-07T03:56:50;16.80;99.90
20288;DHT22;10303;51.960;8.372;2023-05-07T03:59:18;16.80;99.90
20288;DHT22;10303;51.960;8.372;2023-05-07T04:01:45;16.80;99.90
20288;DHT22;10303;51.960;8.372;2023-05-07T04:04:15;16.80;99.90
20288;DHT22;10303;51.960;8.372;2023-05-07T04:06:42;16.70;99.90
20288;DHT22;10303;51.960;8.372;2023-05-07T04:09:08;16.70;99.90
20288;DHT22;10303;51.960;8.372;2023-05-07T04:11:36;16.70;99.90
20288;DHT22;10303;51.960;8.372;2023-05-07T04:14:03;16.70;99.90
20288;DHT22;10303;51.960;8.372;2023-05-07T04:16:29;16.70;99.90
20288;DHT22;10303;51.960;8.372;2023-05-07T04:18:55;16.70;99.90
20288;DHT22;10303;51.960;8.372;2023-05-07T04:21:22;16.70;99.90
20288;DHT22;10303;51.960;8.372;2023-05-07T04:23:50;16.70;99.90
20288;DHT22;10303;51.960;8.372;2023-05-07T04:26:16;16.70;99.90
20288;DHT22;10303;51.960;8.372;2023-05-07T04:28:43;16.70;99.90
20288;DHT22;10303;51.960;8.372;2023-05-07T04:31:10;16.60;99.90
20288;DHT22;10303;51.960;8.372;2023-05-07T04:33:37;16.70;99.90
20288;DHT22;10303;51.960;8.372;2023-05-07T04:36:05;16.60;99.90
20288;DHT22;10303;51.960;8.372;2023-05-07T04:38:37;16.60;99.90
20288;DHT22;10303;51.960;8.372;2023-05-07T04:41:05;16.70;99.90
20288;DHT22;10303;51.960;8.372;2023-05-07T04:43:36;16.70;99.90
20288;DHT22;10303;51.960;8.372;2023-05-07T04:46:02;16.70;99.90
20288;DHT22;10303;51.960;8.372;2023-05-07T04:48:29;16.60;99.90
20288;DHT22;10303;51.960;8.372;2023-05-07T04:50:56;16.70;99.90
20288;DHT22;10303;51.960;8.372;2023-05-07T04:53:23;16.60;99.90
20288;DHT22;10303;51.960;8.372;2023-05-07T04:55:55;16.70;99.90
20288;DHT22;10303;51.960;8.372;2023-05-07T04:58:31;16.70;99.90
20288;DHT22;10303;51.960;8.372;2023-05-07T05:00:58;16.70;99.90
20288;DHT22;10303;51.960;8.372;2023-05-07T05:03:24;16.70;99.90
20288;DHT22;10303;51.960;8.372;2023-05-07T05:05:51;16.70;99.90
20288;DHT22;10303;51.960;8.372;2023-05-07T05:08:19;16.70;99.90
20288;DHT22;10303;51.960;8.372;2023-05-07T05:10:45;16.70;99.90
20288;DHT22;10303;51.960;8.372;2023-05-07T05:13:11;16.70;99.90
20288;DHT22;10303;51.960;8.372;2023-05-07T05:15:38;16.70;99.90
20288;DHT22;10303;51.960;8.372;2023-05-07T05:18:05;16.80;99.90
20288;DHT22;10303;51.960;8.372;2023-05-07T05:20:31;16.80;99.90
20288;DHT22;10303;51.960;8.372;2023-05-07T05:22:57;16.80;99.90
20288;DHT22;10303;51.960;8.372;2023-05-07T05:25:23;16.90;99.90
20288;DHT22;10303;51.960;8.372;2023-05-07T05:27:49;16.90;99.90
20288;DHT22;10303;51.960;8.372;2023-05-07T05:30:15;16.90;99.90
20288;DHT22;10303;51.960;8.372;2023-05-07T05:32:45;16.90;99.90
20288;DHT22;10303;51.960;8.372;2023-05-07T05:35:11;17.00;99.90
20288;DHT22;10303;51.960;8.372;2023-05-07T05:37:38;17.00;99.90
20288;DHT22;10303;51.960;8.372;2023-05-07T05:40:06;17.10;99.90
20288;DHT22;10303;51.960;8.372;2023-05-07T05:42:33;17.00;99.90
20288;DHT22;10303;51.960;8.372;2023-05-07T05:44:59;17.10;99.90
20288;DHT22;10303;51.960;8.372;2023-05-07T05:47:26;17.10;99.90
20288;DHT22;10303;51.960;8.372;2023-05-07T05:49:54;17.10;99.90
20288;DHT22;10303;51.960;8.372;2023-05-07T05:52:21;17.20;99.90
20288;DHT22;10303;51.960;8.372;2023-05-07T05:54:50;17.20;99.90
20288;DHT22;10303;51.960;8.372;2023-05-07T05:57:16;17.30;99.90
20288;DHT22;10303;51.960;8.372;2023-05-07T05:59:44;17.30;99.90
20288;DHT22;10303;51.960;8.372;2023-05-07T06:02:10;17.30;99.90
20288;DHT22;10303;51.960;8.372;2023-05-07T06:04:37;17.40;99.90
20288;DHT22;10303;51.960;8.372;2023-05-07T06:07:03;17.40;99.90
20288;DHT22;10303;51.960;8.372;2023-05-07T06:09:29;17.50;99.90
20288;DHT22;10303;51.960;8.372;2023-05-07T06:11:55;17.50;99.90
20288;DHT22;10303;51.960;8.372;2023-05-07T06:14:21;17.60;99.90
20288;DHT22;10303;51.960;8.372;2023-05-07T06:16:47;17.60;99.90
20288;DHT22;10303;51.960;8.372;2023-05-07T06:19:13;17.60;99.90
20288;DHT22;10303;51.960;8.372;2023-05-07T06:21:41;17.70;99.90
20288;DHT22;10303;51.960;8.372;2023-05-07T06:24:07;17.70;99.90
20288;DHT22;10303;51.960;8.372;2023-05-07T06:26:33;17.70;99.90
20288;DHT22;10303;51.960;8.372;2023-05-07T06:28:59;17.80;99.90
20288;DHT22;10303;51.960;8.372;2023-05-07T06:31:30;17.90;99.90
20288;DHT22;10303;51.960;8.372;2023-05-07T06:34:06;17.90;99.90
20288;DHT22;10303;51.960;8.372;2023-05-07T06:36:36;17.90;99.90
20288;DHT22;10303;51.960;8.372;2023-05-07T06:39:11;18.00;99.90
20288;DHT22;10303;51.960;8.372;2023-05-07T06:41:36;18.00;99.90
20288;DHT22;10303;51.960;8.372;2023-05-07T06:44:08;18.00;99.90
20288;DHT22;10303;51.960;8.372;2023-05-07T06:46:41;18.00;99.90
20288;DHT22;10303;51.960;8.372;2023-05-07T06:49:08;18.10;99.90
20288;DHT22;10303;51.960;8.372;2023-05-07T06:51:34;18.10;99.90
20288;DHT22;10303;51.960;8.372;2023-05-07T06:54:02;18.10;99.90
20288;DHT22;10303;51.960;8.372;2023-05-07T06:56:31;18.20;99.90
20288;DHT22;10303;51.960;8.372;2023-05-07T06:58:59;18.30;99.90
20288;DHT22;10303;51.960;8.372;2023-05-07T07:01:26;18.30;99.90
20288;DHT22;10303;51.960;8.372;2023-05-07T07:03:52;18.30;99.90
20288;DHT22;10303;51.960;8.372;2023-05-07T07:06:19;18.40;99.90
20288;DHT22;10303;51.960;8.372;2023-05-07T07:08:46;18.50;99.90
20288;DHT22;10303;51.960;8.372;2023-05-07T07:11:15;18.50;99.90
20288;DHT22;10303;51.960;8.372;2023-05-07T07:13:41;18.60;99.90
20288;DHT22;10303;51.960;8.372;2023-05-07T07:16:08;18.70;99.90
20288;DHT22;10303;51.960;8.372;2023-05-07T07:18:35;18.70;99.90
20288;DHT22;10303;51.960;8.372;2023-05-07T07:21:01;18.70;99.90
20288;DHT22;10303;51.960;8.372;2023-05-07T07:23:28;18.80;99.90
20288;DHT22;10303;51.960;8.372;2023-05-07T07:25:54;18.90;99.90
20288;DHT22;10303;51.960;8.372;2023-05-07T07:28:21;18.90;99.90
20288;DHT22;10303;51.960;8.372;2023-05-07T07:30:48;18.90;99.90
20288;DHT22;10303;51.960;8.372;2023-05-07T07:33:15;19.00;99.90
20288;DHT22;10303;51.960;8.372;2023-05-07T07:35:42;19.00;99.90
20288;DHT22;10303;51.960;8.372;2023-05-07T07:38:09;19.10;99.90
20288;DHT22;10303;51.960;8.372;2023-05-07T07:40:35;19.10;99.90
20288;DHT22;10303;51.960;8.372;2023-05-07T07:43:04;19.20;99.90
20288;DHT22;10303;51.960;8.372;2023-05-07T07:45:31;19.20;99.90
20288;DHT22;10303;51.960;8.372;2023-05-07T07:47:57;19.30;99.90
20288;DHT22;10303;51.960;8.372;2023-05-07T07:50:23;19.30;99.90
20288;DHT22;10303;51.960;8.372;2023-05-07T07:52:49;19.40;99.90
20288;DHT22;10303;51.960;8.372;2023-05-07T07:55:20;19.40;99.90
20288;DHT22;10303;51.960;8.372;2023-05-07T07:57:49;19.40;99.90
20288;DHT22;10303;51.960;8.372;2023-05-07T08:00:16;19.40;99.90
20288;DHT22;10303;51.960;8.372;2023-05-07T08:02:43;19.50;99.90
20288;DHT22;10303;51.960;8.372;2023-05-07T08:05:12;19.60;99.90
20288;DHT22;10303;51.960;8.372;2023-05-07T08:07:38;19.60;99.90
20288;DHT22;10303;51.960;8.372;2023-05-07T08:10:04;19.60;99.90
20288;DHT22;10303;51.960;8.372;2023-05-07T08:12:31;19.60;99.90
20288;DHT22;10303;51.960;8.372;2023-05-07T08:14:58;19.70;99.90
20288;DHT22;10303;51.960;8.372;2023-05-07T08:17:24;19.70;99.90
20288;DHT22;10303;51.960;8.372;2023-05-07T08:19:50;19.80;99.90
20288;DHT22;10303;51.960;8.372;2023-05-07T08:22:16;19.80;99.90
20288;DHT22;10303;51.960;8.372;2023-05-07T08:24:44;19.90;99.90
20288;DHT22;10303;51.960;8.372;2023-05-07T08:27:11;19.90;99.90
20288;DHT22;10303;51.960;8.372;2023-05-07T08:29:39;19.90;99.90
20288;DHT22;10303;51.960;8.372;2023-05-07T08:32:05;20.00;99.90
20288;DHT22;10303;51.960;8.372;2023-05-07T08:34:31;20.00;99.90
20288;DHT22;10303;51.960;8.372;2023-05-07T08:37:00;20.10;99.90
20288;DHT22;10303;51.960;8.372;2023-05-07T08:39:26;20.10;99.90
20288;DHT22;10303;51.960;8.372;2023-05-07T08:41:55;20.20;99.90
20288;DHT22;10303;51.960;8.372;2023-05-07T08:44:26;20.20;99.90
20288;DHT22;10303;51.960;8.372;2023-05-07T08:46:56;20.30;99.90
20288;DHT22;10303;51.960;8.372;2023-05-07T08:49:26;20.40;99.90
20288;DHT22;10303;51.960;8.372;2023-05-07T08:51:53;20.40;99.90
20288;DHT22;10303;51.960;8.372;2023-05-07T08:54:21;20.60;99.90
20288;DHT22;10303;51.960;8.372;2023-05-07T08:56:47;20.70;99.90
20288;DHT22;10303;51.960;8.372;2023-05-07T08:59:15;20.70;99.90
20288;DHT22;10303;51.960;8.372;2023-05-07T09:01:42;20.80;99.90
20288;DHT22;10303;51.960;8.372;2023-05-07T09:04:09;20.90;99.90
20288;DHT22;10303;51.960;8.372;2023-05-07T09:06:36;21.00;99.90
20288;DHT22;10303;51.960;8.372;2023-05-07T09:09:08;21.10;99.90
20288;DHT22;10303;51.960;8.372;2023-05-07T09:11:35;21.20;99.90
20288;DHT22;10303;51.960;8.372;2023-05-07T09:14:02;21.20;99.90
20288;DHT22;10303;51.960;8.372;2023-05-07T09:16:32;21.30;99.90
20288;DHT22;10303;51.960;8.372;2023-05-07T09:19:00;21.40;99.90
20288;DHT22;10303;51.960;8.372;2023-05-07T09:21:27;21.50;99.90
20288;DHT22;10303;51.960;8.372;2023-05-07T09:23:56;21.60;99.90
20288;DHT22;10303;51.960;8.372;2023-05-07T09:26:29;21.70;99.90
20288;DHT22;10303;51.960;8.372;2023-05-07T09:28:55;21.90;99.90
20288;DHT22;10303;51.960;8.372;2023-05-07T09:31:21;21.90;99.90
20288;DHT22;10303;51.960;8.372;2023-05-07T09:33:49;22.10;99.90
20288;DHT22;10303;51.960;8.372;2023-05-07T09:36:15;22.20;99.90
20288;DHT22;10303;51.960;8.372;2023-05-07T09:38:44;22.30;99.90
20288;DHT22;10303;51.960;8.372;2023-05-07T09:41:12;22.40;99.90
20288;DHT22;10303;51.960;8.372;2023-05-07T09:44:01;22.50;99.90
20288;DHT22;10303;51.960;8.372;2023-05-07T09:46:36;22.70;99.90
20288;DHT22;10303;51.960;8.372;2023-05-07T09:49:21;22.90;99.90
20288;DHT22;10303;51.960;8.372;2023-05-07T09:51:52;23.00;99.90
20288;DHT22;10303;51.960;8.372;2023-05-07T09:54:20;23.10;99.90
20288;DHT22;10303;51.960;8.372;2023-05-07T09:56:52;23.20;99.90
20288;DHT22;10303;51.960;8.372;2023-05-07T09:59:24;23.30;99.90
20288;DHT22;10303;51.960;8.372;2023-05-07T10:01:52;23.50;99.90
20288;DHT22;10303;51.960;8.372;2023-05-07T10:04:22;23.60;99.90
20288;DHT22;10303;51.960;8.372;2023-05-07T10:06:51;23.60;99.90
20288;DHT22;10303;51.960;8.372;2023-05-07T10:09:19;23.70;99.90
20288;DHT22;10303;51.960;8.372;2023-05-07T10:11:48;23.90;99.90
20288;DHT22;10303;51.960;8.372;2023-05-07T10:14:15;23.90;99.90
20288;DHT22;10303;51.960;8.372;2023-05-07T10:16:42;24.00;99.90
20288;DHT22;10303;51.960;8.372;2023-05-07T10:19:14;24.10;99.90
20288;DHT22;10303;51.960;8.372;2023-05-07T10:22:05;24.20;99.90
20288;DHT22;10303;51.960;8.372;2023-05-07T10:24:36;24.30;98.00
20288;DHT22;10303;51.960;8.372;2023-05-07T10:27:10;24.50;99.90
20288;DHT22;10303;51.960;8.372;2023-05-07T10:35:20;24.80;99.00
20288;DHT22;10303;51.960;8.372;2023-05-07T10:37:49;24.90;98.70
20288;DHT22;10303;51.960;8.372;2023-05-07T10:40:16;25.00;98.00
20288;DHT22;10303;51.960;8.372;2023-05-07T10:43:13;25.10;97.70
20288;DHT22;10303;51.960;8.372;2023-05-07T10:51:30;25.30;97.70
20288;DHT22;10303;51.960;8.372;2023-05-07T10:56:43;25.50;97.40
20288;DHT22;10303;51.960;8.372;2023-05-07T11:01:59;25.70;97.50
20288;DHT22;10303;51.960;8.372;2023-05-07T11:04:41;25.80;96.90
20288;DHT22;10303;51.960;8.372;2023-05-07T11:07:29;26.00;97.40
20288;DHT22;10303;51.960;8.372;2023-05-07T11:10:10;26.20;97.30
20288;DHT22;10303;51.960;8.372;2023-05-07T11:12:53;26.30;97.10
20288;DHT22;10303;51.960;8.372;2023-05-07T11:15:36;26.40;96.60
20288;DHT22;10303;51.960;8.372;2023-05-07T11:18:18;26.60;97.30
20288;DHT22;10303;51.960;8.372;2023-05-07T11:20:51;26.70;97.00
20288;DHT22;10303;51.960;8.372;2023-05-07T11:26:50;27.00;97.20
20288;DHT22;10303;51.960;8.372;2023-05-07T11:29:20;27.20;95.30
20288;DHT22;10303;51.960;8.372;2023-05-07T11:31:53;27.30;95.50
20288;DHT22;10303;51.960;8.372;2023-05-07T11:34:24;27.40;94.90
20288;DHT22;10303;51.960;8.372;2023-05-07T11:36:54;27.50;94.30
20288;DHT22;10303;51.960;8.372;2023-05-07T11:39:32;27.50;93.50
20288;DHT22;10303;51.960;8.372;2023-05-07T11:42:02;27.60;92.50
20288;DHT22;10303;51.960;8.372;2023-05-07T11:44:44;27.60;92.40
20288;DHT22;10303;51.960;8.372;2023-05-07T11:47:16;27.60;91.60
20288;DHT22;10303;51.960;8.372;2023-05-07T11:49:45;27.50;92.20
20288;DHT22;10303;51.960;8.372;2023-05-07T11:52:13;27.50;91.70
20288;DHT22;10303;51.960;8.372;2023-05-07T11:54:40;27.50;91.70
20288;DHT22;10303;51.960;8.372;2023-05-07T11:57:06;27.50;91.70
20288;DHT22;10303;51.960;8.372;2023-05-07T11:59:39;27.40;91.70
20288;DHT22;10303;51.960;8.372;2023-05-07T12:02:06;27.40;91.00
20288;DHT22;10303;51.960;8.372;2023-05-07T12:04:33;27.40;91.40
20288;DHT22;10303;51.960;8.372;2023-05-07T12:06:59;27.40;91.50
20288;DHT22;10303;51.960;8.372;2023-05-07T12:09:25;27.40;91.60
20288;DHT22;10303;51.960;8.372;2023-05-07T12:11:52;27.40;91.70
20288;DHT22;10303;51.960;8.372;2023-05-07T12:14:18;27.50;90.90
20288;DHT22;10303;51.960;8.372;2023-05-07T12:16:44;27.50;91.10
20288;DHT22;10303;51.960;8.372;2023-05-07T12:19:11;27.60;91.00
20288;DHT22;10303;51.960;8.372;2023-05-07T12:21:38;27.60;90.80
20288;DHT22;10303;51.960;8.372;2023-05-07T12:24:05;27.70;90.40
20288;DHT22;10303;51.960;8.372;2023-05-07T12:26:31;27.70;90.20
20288;DHT22;10303;51.960;8.372;2023-05-07T12:28:57;27.80;90.10
20288;DHT22;10303;51.960;8.372;2023-05-07T12:31:25;27.90;90.20
20288;DHT22;10303;51.960;8.372;2023-05-07T12:33:52;27.90;90.00
20288;DHT22;10303;51.960;8.372;2023-05-07T12:36:18;28.00;89.20
20288;DHT22;10303;51.960;8.372;2023-05-07T12:38:44;28.10;89.70
20288;DHT22;10303;51.960;8.372;2023-05-07T12:41:11;28.10;89.60
20288;DHT22;10303;51.960;8.372;2023-05-07T12:43:38;28.30;89.40
20288;DHT22;10303;51.960;8.372;2023-05-07T12:46:06;28.30;89.20
20288;DHT22;10303;51.960;8.372;2023-05-07T12:48:33;28.40;88.50
20288;DHT22;10303;51.960;8.372;2023-05-07T12:51:01;28.50;89.30
20288;DHT22;10303;51.960;8.372;2023-05-07T12:53:30;28.60;90.20
20288;DHT22;10303;51.960;8.372;2023-05-07T12:55:58;28.70;90.00
20288;DHT22;10303;51.960;8.372;2023-05-07T12:58:30;28.80;89.90
20288;DHT22;10303;51.960;8.372;2023-05-07T13:01:00;28.80;86.90
20288;DHT22;10303;51.960;8.372;2023-05-07T13:03:31;28.90;86.70
20288;DHT22;10303;51.960;8.372;2023-05-07T13:06:06;28.90;85.80
20288;DHT22;10303;51.960;8.372;2023-05-07T13:08:39;28.80;85.30
20288;DHT22;10303;51.960;8.372;2023-05-07T13:11:08;28.80;84.90
20288;DHT22;10303;51.960;8.372;2023-05-07T13:13:37;28.80;85.10
20288;DHT22;10303;51.960;8.372;2023-05-07T13:16:05;28.70;85.30
20288;DHT22;10303;51.960;8.372;2023-05-07T13:18:33;28.70;86.60
20288;DHT22;10303;51.960;8.372;2023-05-07T13:21:00;28.70;86.10
20288;DHT22;10303;51.960;8.372;2023-05-07T13:23:27;28.60;85.90
20288;DHT22;10303;51.960;8.372;2023-05-07T13:25:53;28.60;86.00
20288;DHT22;10303;51.960;8.372;2023-05-07T13:28:20;28.60;85.10
20288;DHT22;10303;51.960;8.372;2023-05-07T13:30:46;28.60;84.50
20288;DHT22;10303;51.960;8.372;2023-05-07T13:33:12;28.50;83.20
20288;DHT22;10303;51.960;8.372;2023-05-07T13:35:38;28.50;83.50
20288;DHT22;10303;51.960;8.372;2023-05-07T13:38:05;28.50;84.10
20288;DHT22;10303;51.960;8.372;2023-05-07T13:40:31;28.40;84.00
20288;DHT22;10303;51.960;8.372;2023-05-07T13:42:58;28.40;83.70
20288;DHT22;10303;51.960;8.372;2023-05-07T13:45:26;28.30;83.50
20288;DHT22;10303;51.960;8.372;2023-05-07T13:47:52;28.30;83.80
20288;DHT22;10303;51.960;8.372;2023-05-07T13:50:18;28.30;82.90
20288;DHT22;10303;51.960;8.372;2023-05-07T13:52:44;28.30;82.30
20288;DHT22;10303;51.960;8.372;2023-05-07T13:55:20;28.20;82.30
20288;DHT22;10303;51.960;8.372;2023-05-07T13:57:53;28.10;82.00
20288;DHT22;10303;51.960;8.372;2023-05-07T14:00:24;28.10;82.20
20288;DHT22;10303;51.960;8.372;2023-05-07T14:02:50;28.00;81.90
20288;DHT22;10303;51.960;8.372;2023-05-07T14:05:16;28.00;81.70
20288;DHT22;10303;51.960;8.372;2023-05-07T14:07:43;27.90;81.20
20288;DHT22;10303;51.960;8.372;2023-05-07T14:10:09;27.80;81.00
20288;DHT22;10303;51.960;8.372;2023-05-07T14:12:36;27.70;80.70
20288;DHT22;10303;51.960;8.372;2023-05-07T14:15:03;27.60;80.80
20288;DHT22;10303;51.960;8.372;2023-05-07T14:17:29;27.50;81.00
20288;DHT22;10303;51.960;8.372;2023-05-07T14:19:55;27.50;81.00
20288;DHT22;10303;51.960;8.372;2023-05-07T14:22:22;27.40;81.20
20288;DHT22;10303;51.960;8.372;2023-05-07T14:24:49;27.30;81.70
20288;DHT22;10303;51.960;8.372;2023-05-07T14:27:15;27.20;81.70
20288;DHT22;10303;51.960;8.372;2023-05-07T14:29:42;27.10;81.70
20288;DHT22;10303;51.960;8.372;2023-05-07T14:32:08;27.00;81.00
20288;DHT22;10303;51.960;8.372;2023-05-07T14:34:34;26.90;80.50
20288;DHT22;10303;51.960;8.372;2023-05-07T14:37:00;26.70;80.80
20288;DHT22;10303;51.960;8.372;2023-05-07T14:39:27;26.60;81.00
20288;DHT22;10303;51.960;8.372;2023-05-07T14:41:53;26.40;81.20
20288;DHT22;10303;51.960;8.372;2023-05-07T14:44:20;26.30;80.60
20288;DHT22;10303;51.960;8.372;2023-05-07T14:46:46;26.20;80.90
20288;DHT22;10303;51.960;8.372;2023-05-07T14:49:14;26.00;80.70
20288;DHT22;10303;51.960;8.372;2023-05-07T14:51:46;25.90;81.10
20288;DHT22;10303;51.960;8.372;2023-05-07T14:54:13;25.80;81.30
20288;DHT22;10303;51.960;8.372;2023-05-07T14:56:40;25.70;81.80
20288;DHT22;10303;51.960;8.372;2023-05-07T14:59:07;25.50;81.50
20288;DHT22;10303;51.960;8.372;2023-05-07T15:01:35;25.40;81.80
20288;DHT22;10303;51.960;8.372;2023-05-07T15:04:03;25.30;82.10
20288;DHT22;10303;51.960;8.372;2023-05-07T15:06:30;25.20;82.20
20288;DHT22;10303;51.960;8.372;2023-05-07T15:08:57;25.10;82.50
20288;DHT22;10303;51.960;8.372;2023-05-07T15:11:23;25.00;82.60
20288;DHT22;10303;51.960;8.372;2023-05-07T15:13:49;24.90;83.00
20288;DHT22;10303;51.960;8.372;2023-05-07T15:16:15;24.80;83.40
20288;DHT22;10303;51.960;8.372;2023-05-07T15:18:42;24.70;83.50
20288;DHT22;10303;51.960;8.372;2023-05-07T15:21:08;24.70;83.90
20288;DHT22;10303;51.960;8.372;2023-05-07T15:23:35;24.60;84.30
20288;DHT22;10303;51.960;8.372;2023-05-07T15:26:01;24.50;84.60
20288;DHT22;10303;51.960;8.372;2023-05-07T15:28:27;24.40;84.80
20288;DHT22;10303;51.960;8.372;2023-05-07T15:30:56;24.40;85.10
20288;DHT22;10303;51.960;8.372;2023-05-07T15:33:23;24.40;85.80
20288;DHT22;10303;51.960;8.372;2023-05-07T15:35:49;24.30;86.00
20288;DHT22;10303;51.960;8.372;2023-05-07T15:38:15;24.30;86.00
20288;DHT22;10303;51.960;8.372;2023-05-07T15:40:41;24.30;85.90
20288;DHT22;10303;51.960;8.372;2023-05-07T15:43:08;24.20;86.10
20288;DHT22;10303;51.960;8.372;2023-05-07T15:45:40;24.10;86.10
20288;DHT22;10303;51.960;8.372;2023-05-07T15:48:07;24.20;86.40
20288;DHT22;10303;51.960;8.372;2023-05-07T15:50:34;24.10;86.50
20288;DHT22;10303;51.960;8.372;2023-05-07T15:53:01;24.10;86.90
20288;DHT22;10303;51.960;8.372;2023-05-07T15:55:29;24.10;86.70